sensor_id;sensor_type;location;lat;lon;timestamp;temperature;humidity
61412;DHT22;47278;49.732;7.690;2023-03-23T00:01:08;13.60;99.90
61412;DHT22;47278;49.732;7.690;2023-03-23T00:03:46;13.40;99.90
61412;DHT22;47278;49.732;7.690;2023-03-23T00:06:13;13.60;99.90
61412;DHT22;47278;49.732;7.690;2023-03-23T00:08:45;13.10;99.90
61412;DHT22;47278;49.732;7.690;2023-03-23T00:11:12;13.30;99.90
61412;DHT22;47278;49.732;7.690;2023-03-23T00:13:41;13.40;99.90
61412;DHT22;47278;49.732;7.690;2023-03-23T00:16:08;13.30;99.90
61412;DHT22;47278;49.732;7.690;2023-03-23T00:18:46;13.50;99.90
61412;DHT22;47278;49.732;7.690;2023-03-23T00:21:12;13.50;99.90
61412;DHT22;47278;49.732;7.690;2023-03-23T00:23:38;13.50;99.90
61412;DHT22;47278;49.732;7.690;2023-03-23T00:26:04;13.50;99.90
61412;DHT22;47278;49.732;7.690;2023-03-23T00:28:30;13.40;99.90
61412;DHT22;47278;49.732;7.690;2023-03-23T00:30:57;13.60;99.90
61412;DHT22;47278;49.732;7.690;2023-03-23T00:33:26;13.50;99.90
61412;DHT22;47278;49.732;7.690;2023-03-23T00:35:52;13.80;99.90
61412;DHT22;47278;49.732;7.690;2023-03-23T00:38:20;13.90;99.90
61412;DHT22;47278;49.732;7.690;2023-03-23T00:40:46;14.20;99.90
61412;DHT22;47278;49.732;7.690;2023-03-23T00:43:14;14.10;99.90
61412;DHT22;47278;49.732;7.690;2023-03-23T00:45:42;14.20;99.90
61412;DHT22;47278;49.732;7.690;2023-03-23T00:48:08;14.40;99.90
61412;DHT22;47278;49.732;7.690;2023-03-23T00:50:34;14.40;99.90
61412;DHT22;47278;49.732;7.690;2023-03-23T00:52:59;14.50;99.90
61412;DHT22;47278;49.732;7.690;2023-03-23T00:55:25;14.40;99.90
61412;DHT22;47278;49.732;7.690;2023-03-23T00:57:51;14.40;99.90
61412;DHT22;47278;49.732;7.690;2023-03-23T01:00:18;14.30;99.90
61412;DHT22;47278;49.732;7.690;2023-03-23T01:02:45;14.50;99.90
61412;DHT22;47278;49.732;7.690;2023-03-23T01:05:11;14.50;99.90
61412;DHT22;47278;49.732;7.690;2023-03-23T01:07:37;14.50;99.90
61412;DHT22;47278;49.732;7.690;2023-03-23T01:10:04;14.60;99.90
61412;DHT22;47278;49.732;7.690;2023-03-23T01:12:29;14.50;99.90
61412;DHT22;47278;49.732;7.690;2023-03-23T01:14:55;14.60;99.90
61412;DHT22;47278;49.732;7.690;2023-03-23T01:17:21;14.60;99.90
61412;DHT22;47278;49.732;7.690;2023-03-23T01:19:47;14.50;99.90
61412;DHT22;47278;49.732;7.690;2023-03-23T01:22:13;14.50;99.90
61412;DHT22;47278;49.732;7.690;2023-03-23T01:24:38;14.40;99.90
61412;DHT22;47278;49.732;7.690;2023-03-23T01:27:04;14.40;99.90
61412;DHT22;47278;49.732;7.690;2023-03-23T01:29:35;14.30;99.90
61412;DHT22;47278;49.732;7.690;2023-03-23T01:32:02;14.30;99.90
61412;DHT22;47278;49.732;7.690;2023-03-23T01:34:27;14.20;99.90
61412;DHT22;47278;49.732;7.690;2023-03-23T01:36:53;14.20;99.90
61412;DHT22;47278;49.732;7.690;2023-03-23T01:39:19;14.20;99.90
61412;DHT22;47278;49.732;7.690;2023-03-23T01:41:46;14.20;99.90
61412;DHT22;47278;49.732;7.690;2023-03-23T01:46:44;14.10;99.90
61412;DHT22;47278;49.732;7.690;2023-03-23T01:49:16;14.20;99.90
61412;DHT22;47278;49.732;7.690;2023-03-23T01:51:46;14.10;99.90
61412;DHT22;47278;49.732;7.690;2023-03-23T01:54:15;14.10;99.90
61412;DHT22;47278;49.732;7.690;2023-03-23T01:56:50;15.30;99.90
61412;DHT22;47278;49.732;7.690;2023-03-23T01:59:17;14.00;99.90
61412;DHT22;47278;49.732;7.690;2023-03-23T02:01:44;13.90;99.90
61412;DHT22;47278;49.732;7.690;2023-03-23T02:04:13;13.80;99.90
61412;DHT22;47278;49.732;7.690;2023-03-23T02:06:40;13.90;99.90
61412;DHT22;47278;49.732;7.690;2023-03-23T02:09:06;13.80;99.90
61412;DHT22;47278;49.732;7.690;2023-03-23T02:11:32;13.70;99.90
61412;DHT22;47278;49.732;7.690;2023-03-23T02:13:58;13.70;99.90
61412;DHT22;47278;49.732;7.690;2023-03-23T02:16:39;13.70;99.90
61412;DHT22;47278;49.732;7.690;2023-03-23T02:22:34;13.50;99.90
61412;DHT22;47278;49.732;7.690;2023-03-23T02:25:17;13.30;99.90
61412;DHT22;47278;49.732;7.690;2023-03-23T02:36:00;13.10;99.90
61412;DHT22;47278;49.732;7.690;2023-03-23T02:38:44;13.00;99.90
61412;DHT22;47278;49.732;7.690;2023-03-23T02:41:19;13.00;99.90
61412;DHT22;47278;49.732;7.690;2023-03-23T02:43:47;12.80;99.90
61412;DHT22;47278;49.732;7.690;2023-03-23T02:46:14;12.70;99.90
61412;DHT22;47278;49.732;7.690;2023-03-23T02:48:42;12.50;99.90
61412;DHT22;47278;49.732;7.690;2023-03-23T02:51:10;12.60;99.90
61412;DHT22;47278;49.732;7.690;2023-03-23T02:53:39;12.60;99.90
61412;DHT22;47278;49.732;7.690;2023-03-23T02:56:08;12.70;99.90
61412;DHT22;47278;49.732;7.690;2023-03-23T02:58:35;12.70;99.90
61412;DHT22;47278;49.732;7.690;2023-03-23T03:03:43;12.80;99.90
61412;DHT22;47278;49.732;7.690;2023-03-23T03:06:19;12.80;99.90
61412;DHT22;47278;49.732;7.690;2023-03-23T03:08:57;12.80;99.90
61412;DHT22;47278;49.732;7.690;2023-03-23T03:11:24;12.90;99.90
61412;DHT22;47278;49.732;7.690;2023-03-23T03:14:09;13.00;99.90
61412;DHT22;47278;49.732;7.690;2023-03-23T03:16:54;12.90;99.90
61412;DHT22;47278;49.732;7.690;2023-03-23T03:19:41;12.60;99.90
61412;DHT22;47278;49.732;7.690;2023-03-23T03:22:08;12.50;99.90
61412;DHT22;47278;49.732;7.690;2023-03-23T03:24:35;12.50;99.90
61412;DHT22;47278;49.732;7.690;2023-03-23T03:27:11;12.70;99.90
61412;DHT22;47278;49.732;7.690;2023-03-23T03:29:41;12.70;99.90
61412;DHT22;47278;49.732;7.690;2023-03-23T03:32:11;12.80;99.90
61412;DHT22;47278;49.732;7.690;2023-03-23T03:34:37;12.90;99.90
61412;DHT22;47278;49.732;7.690;2023-03-23T03:37:05;12.90;99.90
61412;DHT22;47278;49.732;7.690;2023-03-23T03:39:34;13.10;99.90
61412;DHT22;47278;49.732;7.690;2023-03-23T03:42:01;13.10;99.90
61412;DHT22;47278;49.732;7.690;2023-03-23T03:44:27;15.80;99.90
61412;DHT22;47278;49.732;7.690;2023-03-23T03:46:53;12.90;99.90
61412;DHT22;47278;49.732;7.690;2023-03-23T03:49:18;13.10;99.90
61412;DHT22;47278;49.732;7.690;2023-03-23T03:51:44;13.10;99.90
61412;DHT22;47278;49.732;7.690;2023-03-23T03:54:10;13.00;99.90
61412;DHT22;47278;49.732;7.690;2023-03-23T03:56:37;13.00;99.90
61412;DHT22;47278;49.732;7.690;2023-03-23T03:59:09;13.10;99.90
61412;DHT22;47278;49.732;7.690;2023-03-23T04:01:36;13.10;99.90
61412;DHT22;47278;49.732;7.690;2023-03-23T04:04:03;13.00;99.90
61412;DHT22;47278;49.732;7.690;2023-03-23T04:06:30;13.00;99.90
61412;DHT22;47278;49.732;7.690;2023-03-23T04:08:56;13.00;99.90
61412;DHT22;47278;49.732;7.690;2023-03-23T04:11:24;13.00;99.90
61412;DHT22;47278;49.732;7.690;2023-03-23T04:13:50;13.00;99.90
61412;DHT22;47278;49.732;7.690;2023-03-23T04:16:16;13.00;99.90
61412;DHT22;47278;49.732;7.690;2023-03-23T04:18:42;13.00;99.90
61412;DHT22;47278;49.732;7.690;2023-03-23T04:21:09;12.90;99.90
61412;DHT22;47278;49.732;7.690;2023-03-23T04:23:35;12.80;99.90
61412;DHT22;47278;49.732;7.690;2023-03-23T04:26:02;12.80;99.90
61412;DHT22;47278;49.732;7.690;2023-03-23T04:28:28;12.80;99.90
61412;DHT22;47278;49.732;7.690;2023-03-23T04:30:55;12.80;99.90
61412;DHT22;47278;49.732;7.690;2023-03-23T04:33:25;12.70;99.90
61412;DHT22;47278;49.732;7.690;2023-03-23T04:35:56;12.60;99.90
61412;DHT22;47278;49.732;7.690;2023-03-23T04:38:23;12.60;99.90
61412;DHT22;47278;49.732;7.690;2023-03-23T04:40:51;12.60;99.90
61412;DHT22;47278;49.732;7.690;2023-03-23T04:43:18;12.50;99.90
61412;DHT22;47278;49.732;7.690;2023-03-23T04:45:47;12.40;99.90
61412;DHT22;47278;49.732;7.690;2023-03-23T04:48:17;12.40;99.90
61412;DHT22;47278;49.732;7.690;2023-03-23T04:50:43;12.40;99.90
61412;DHT22;47278;49.732;7.690;2023-03-23T04:53:08;12.40;99.90
61412;DHT22;47278;49.732;7.690;2023-03-23T04:55:36;12.40;99.90
61412;DHT22;47278;49.732;7.690;2023-03-23T04:58:06;12.40;99.90
61412;DHT22;47278;49.732;7.690;2023-03-23T05:00:33;12.40;99.90
61412;DHT22;47278;49.732;7.690;2023-03-23T05:02:59;12.30;99.90
61412;DHT22;47278;49.732;7.690;2023-03-23T05:05:26;12.30;99.90
61412;DHT22;47278;49.732;7.690;2023-03-23T05:07:53;12.30;99.90
61412;DHT22;47278;49.732;7.690;2023-03-23T05:10:18;12.30;99.90
61412;DHT22;47278;49.732;7.690;2023-03-23T05:12:45;12.30;99.90
61412;DHT22;47278;49.732;7.690;2023-03-23T05:15:12;14.20;99.90
61412;DHT22;47278;49.732;7.690;2023-03-23T05:17:38;12.20;99.90
61412;DHT22;47278;49.732;7.690;2023-03-23T05:20:06;12.20;99.90
61412;DHT22;47278;49.732;7.690;2023-03-23T05:22:37;12.10;99.90
61412;DHT22;47278;49.732;7.690;2023-03-23T05:25:05;12.10;99.90
61412;DHT22;47278;49.732;7.690;2023-03-23T05:27:35;12.10;99.90
61412;DHT22;47278;49.732;7.690;2023-03-23T05:30:01;12.00;99.90
61412;DHT22;47278;49.732;7.690;2023-03-23T05:32:27;12.00;99.90
61412;DHT22;47278;49.732;7.690;2023-03-23T05:35:00;12.00;99.90
61412;DHT22;47278;49.732;7.690;2023-03-23T05:37:27;11.90;99.90
61412;DHT22;47278;49.732;7.690;2023-03-23T05:39:54;11.90;99.90
61412;DHT22;47278;49.732;7.690;2023-03-23T05:42:21;11.90;99.90
61412;DHT22;47278;49.732;7.690;2023-03-23T05:44:48;11.90;99.90
61412;DHT22;47278;49.732;7.690;2023-03-23T05:47:14;11.80;99.90
61412;DHT22;47278;49.732;7.690;2023-03-23T05:49:40;11.90;99.90
61412;DHT22;47278;49.732;7.690;2023-03-23T05:52:06;11.90;99.90
61412;DHT22;47278;49.732;7.690;2023-03-23T05:54:32;11.90;99.90
61412;DHT22;47278;49.732;7.690;2023-03-23T05:56:59;11.90;99.90
61412;DHT22;47278;49.732;7.690;2023-03-23T05:59:25;11.80;99.90
61412;DHT22;47278;49.732;7.690;2023-03-23T06:01:51;11.90;99.90
61412;DHT22;47278;49.732;7.690;2023-03-23T06:04:19;11.80;99.90
61412;DHT22;47278;49.732;7.690;2023-03-23T06:06:44;11.90;99.90
61412;DHT22;47278;49.732;7.690;2023-03-23T06:09:11;11.80;99.90
61412;DHT22;47278;49.732;7.690;2023-03-23T06:11:37;11.90;99.90
61412;DHT22;47278;49.732;7.690;2023-03-23T06:14:03;11.80;99.90
61412;DHT22;47278;49.732;7.690;2023-03-23T06:16:28;11.90;99.90
61412;DHT22;47278;49.732;7.690;2023-03-23T06:18:54;11.90;99.90
61412;DHT22;47278;49.732;7.690;2023-03-23T06:21:22;11.90;99.90
61412;DHT22;47278;49.732;7.690;2023-03-23T06:23:48;11.90;99.90
61412;DHT22;47278;49.732;7.690;2023-03-23T06:26:14;11.90;99.90
61412;DHT22;47278;49.732;7.690;2023-03-23T06:28:42;12.00;99.90
61412;DHT22;47278;49.732;7.690;2023-03-23T06:31:08;12.00;99.90
61412;DHT22;47278;49.732;7.690;2023-03-23T06:33:35;12.00;99.90
61412;DHT22;47278;49.732;7.690;2023-03-23T06:36:01;12.00;99.90
61412;DHT22;47278;49.732;7.690;2023-03-23T06:38:27;12.10;99.90
61412;DHT22;47278;49.732;7.690;2023-03-23T06:40:53;12.70;99.90
61412;DHT22;47278;49.732;7.690;2023-03-23T06:43:19;12.20;99.90
61412;DHT22;47278;49.732;7.690;2023-03-23T06:45:45;12.20;99.90
61412;DHT22;47278;49.732;7.690;2023-03-23T06:48:11;12.20;99.90
61412;DHT22;47278;49.732;7.690;2023-03-23T06:50:37;12.20;99.90
61412;DHT22;47278;49.732;7.690;2023-03-23T06:53:03;12.30;99.90
61412;DHT22;47278;49.732;7.690;2023-03-23T06:55:29;12.30;99.90
61412;DHT22;47278;49.732;7.690;2023-03-23T06:57:54;12.40;99.90
61412;DHT22;47278;49.732;7.690;2023-03-23T07:00:20;12.50;99.90
61412;DHT22;47278;49.732;7.690;2023-03-23T07:02:46;12.50;99.90
61412;DHT22;47278;49.732;7.690;2023-03-23T07:05:12;12.50;99.90
61412;DHT22;47278;49.732;7.690;2023-03-23T07:07:39;12.60;99.90
61412;DHT22;47278;49.732;7.690;2023-03-23T07:10:07;12.70;99.90
61412;DHT22;47278;49.732;7.690;2023-03-23T07:12:34;12.70;99.90
61412;DHT22;47278;49.732;7.690;2023-03-23T07:15:04;12.70;99.90
61412;DHT22;47278;49.732;7.690;2023-03-23T07:17:30;10.20;99.90
61412;DHT22;47278;49.732;7.690;2023-03-23T07:19:57;12.70;99.90
61412;DHT22;47278;49.732;7.690;2023-03-23T07:22:23;12.70;99.90
61412;DHT22;47278;49.732;7.690;2023-03-23T07:24:48;12.80;99.90
61412;DHT22;47278;49.732;7.690;2023-03-23T07:27:14;12.80;99.90
61412;DHT22;47278;49.732;7.690;2023-03-23T07:29:40;12.90;99.90
61412;DHT22;47278;49.732;7.690;2023-03-23T07:32:09;13.00;99.90
61412;DHT22;47278;49.732;7.690;2023-03-23T07:34:36;13.10;99.90
61412;DHT22;47278;49.732;7.690;2023-03-23T07:37:02;13.10;99.90
61412;DHT22;47278;49.732;7.690;2023-03-23T07:39:28;13.20;99.90
61412;DHT22;47278;49.732;7.690;2023-03-23T07:41:54;13.30;99.90
61412;DHT22;47278;49.732;7.690;2023-03-23T07:44:20;13.30;99.90
61412;DHT22;47278;49.732;7.690;2023-03-23T07:46:46;13.30;99.90
61412;DHT22;47278;49.732;7.690;2023-03-23T07:49:12;13.30;99.90
61412;DHT22;47278;49.732;7.690;2023-03-23T07:51:38;13.30;99.90
61412;DHT22;47278;49.732;7.690;2023-03-23T07:54:04;13.30;99.90
61412;DHT22;47278;49.732;7.690;2023-03-23T07:56:30;13.40;99.90
61412;DHT22;47278;49.732;7.690;2023-03-23T07:58:56;13.30;99.90
61412;DHT22;47278;49.732;7.690;2023-03-23T08:01:22;13.40;99.90
61412;DHT22;47278;49.732;7.690;2023-03-23T08:03:50;13.40;99.90
61412;DHT22;47278;49.732;7.690;2023-03-23T08:06:16;13.40;99.90
61412;DHT22;47278;49.732;7.690;2023-03-23T08:08:42;13.30;99.90
61412;DHT22;47278;49.732;7.690;2023-03-23T08:11:08;13.30;99.90
61412;DHT22;47278;49.732;7.690;2023-03-23T08:13:34;13.40;99.90
61412;DHT22;47278;49.732;7.690;2023-03-23T08:16:01;13.30;99.90
61412;DHT22;47278;49.732;7.690;2023-03-23T08:18:30;13.40;99.90
61412;DHT22;47278;49.732;7.690;2023-03-23T08:20:57;13.40;99.90
61412;DHT22;47278;49.732;7.690;2023-03-23T08:23:23;13.30;99.90
61412;DHT22;47278;49.732;7.690;2023-03-23T08:25:49;13.30;99.90
61412;DHT22;47278;49.732;7.690;2023-03-23T08:28:15;13.30;99.90
61412;DHT22;47278;49.732;7.690;2023-03-23T08:30:41;13.30;99.90
61412;DHT22;47278;49.732;7.690;2023-03-23T08:33:07;13.40;99.90
61412;DHT22;47278;49.732;7.690;2023-03-23T08:35:36;13.50;99.90
61412;DHT22;47278;49.732;7.690;2023-03-23T08:38:02;13.60;99.90
61412;DHT22;47278;49.732;7.690;2023-03-23T08:40:28;13.60;99.90
61412;DHT22;47278;49.732;7.690;2023-03-23T08:42:55;13.60;99.90
61412;DHT22;47278;49.732;7.690;2023-03-23T08:45:23;13.50;99.90
61412;DHT22;47278;49.732;7.690;2023-03-23T08:47:50;13.50;99.90
61412;DHT22;47278;49.732;7.690;2023-03-23T08:50:19;13.30;99.90
61412;DHT22;47278;49.732;7.690;2023-03-23T08:52:45;13.20;99.90
61412;DHT22;47278;49.732;7.690;2023-03-23T08:55:12;13.20;99.90
61412;DHT22;47278;49.732;7.690;2023-03-23T08:57:38;13.20;99.90
61412;DHT22;47278;49.732;7.690;2023-03-23T09:00:07;13.10;99.90
61412;DHT22;47278;49.732;7.690;2023-03-23T09:02:42;13.20;99.90
61412;DHT22;47278;49.732;7.690;2023-03-23T09:05:09;13.20;99.90
61412;DHT22;47278;49.732;7.690;2023-03-23T09:07:41;13.40;99.90
61412;DHT22;47278;49.732;7.690;2023-03-23T09:10:07;13.60;99.90
61412;DHT22;47278;49.732;7.690;2023-03-23T09:12:33;13.90;99.90
61412;DHT22;47278;49.732;7.690;2023-03-23T09:14:59;13.90;99.90
61412;DHT22;47278;49.732;7.690;2023-03-23T09:17:28;14.00;99.90
61412;DHT22;47278;49.732;7.690;2023-03-23T09:19:54;14.10;99.90
61412;DHT22;47278;49.732;7.690;2023-03-23T09:22:20;14.30;99.90
61412;DHT22;47278;49.732;7.690;2023-03-23T09:24:49;14.30;99.90
61412;DHT22;47278;49.732;7.690;2023-03-23T09:27:15;14.10;99.90
61412;DHT22;47278;49.732;7.690;2023-03-23T09:29:41;14.10;99.90
61412;DHT22;47278;49.732;7.690;2023-03-23T09:32:07;14.10;99.90
61412;DHT22;47278;49.732;7.690;2023-03-23T09:34:33;14.00;99.90
61412;DHT22;47278;49.732;7.690;2023-03-23T09:37:01;14.10;99.90
61412;DHT22;47278;49.732;7.690;2023-03-23T09:39:30;14.10;99.90
61412;DHT22;47278;49.732;7.690;2023-03-23T09:42:05;13.90;99.90
61412;DHT22;47278;49.732;7.690;2023-03-23T09:48:14;13.60;99.90
61412;DHT22;47278;49.732;7.690;2023-03-23T09:50:24;13.40;99.90
61412;DHT22;47278;49.732;7.690;2023-03-23T09:53:13;13.20;99.90
61412;DHT22;47278;49.732;7.690;2023-03-23T09:55:40;13.20;99.90
61412;DHT22;47278;49.732;7.690;2023-03-23T09:58:17;13.20;99.90
61412;DHT22;47278;49.732;7.690;2023-03-23T10:00:52;13.30;99.90
61412;DHT22;47278;49.732;7.690;2023-03-23T10:03:26;13.60;99.90
61412;DHT22;47278;49.732;7.690;2023-03-23T10:05:54;14.80;99.90
61412;DHT22;47278;49.732;7.690;2023-03-23T10:08:24;13.70;99.90
61412;DHT22;47278;49.732;7.690;2023-03-23T10:14:03;13.70;99.90
61412;DHT22;47278;49.732;7.690;2023-03-23T10:16:37;13.70;99.90
61412;DHT22;47278;49.732;7.690;2023-03-23T10:19:15;13.70;99.90
61412;DHT22;47278;49.732;7.690;2023-03-23T10:21:50;13.90;99.90
61412;DHT22;47278;49.732;7.690;2023-03-23T10:24:32;13.90;99.90
61412;DHT22;47278;49.732;7.690;2023-03-23T10:30:02;13.90;99.90
61412;DHT22;47278;49.732;7.690;2023-03-23T10:35:39;13.90;99.90
61412;DHT22;47278;49.732;7.690;2023-03-23T10:38:36;14.10;99.90
61412;DHT22;47278;49.732;7.690;2023-03-23T10:41:19;13.70;99.90
61412;DHT22;47278;49.732;7.690;2023-03-23T10:43:45;13.70;99.90
61412;DHT22;47278;49.732;7.690;2023-03-23T10:48:43;13.50;99.90
61412;DHT22;47278;49.732;7.690;2023-03-23T10:51:12;13.40;99.90
61412;DHT22;47278;49.732;7.690;2023-03-23T10:54:00;13.40;99.90
61412;DHT22;47278;49.732;7.690;2023-03-23T10:56:38;13.30;99.90
61412;DHT22;47278;49.732;7.690;2023-03-23T10:59:27;13.30;99.90
61412;DHT22;47278;49.732;7.690;2023-03-23T11:01:56;13.30;99.90
61412;DHT22;47278;49.732;7.690;2023-03-23T11:04:23;13.10;99.90
61412;DHT22;47278;49.732;7.690;2023-03-23T11:06:52;13.10;99.90
61412;DHT22;47278;49.732;7.690;2023-03-23T11:09:20;13.00;99.90
61412;DHT22;47278;49.732;7.690;2023-03-23T11:11:52;13.00;99.90
61412;DHT22;47278;49.732;7.690;2023-03-23T11:14:33;13.00;99.90
61412;DHT22;47278;49.732;7.690;2023-03-23T11:17:04;13.10;99.90
61412;DHT22;47278;49.732;7.690;2023-03-23T11:19:34;13.20;99.90
61412;DHT22;47278;49.732;7.690;2023-03-23T11:24:35;13.30;99.90
61412;DHT22;47278;49.732;7.690;2023-03-23T11:27:03;13.20;99.90
61412;DHT22;47278;49.732;7.690;2023-03-23T11:29:33;13.20;99.90
61412;DHT22;47278;49.732;7.690;2023-03-23T11:34:34;13.10;99.90
61412;DHT22;47278;49.732;7.690;2023-03-23T11:37:46;13.00;99.90
61412;DHT22;47278;49.732;7.690;2023-03-23T11:40:14;13.00;99.90
61412;DHT22;47278;49.732;7.690;2023-03-23T11:42:58;13.10;99.90
61412;DHT22;47278;49.732;7.690;2023-03-23T11:45:47;13.10;99.90
61412;DHT22;47278;49.732;7.690;2023-03-23T11:48:43;13.10;99.90
61412;DHT22;47278;49.732;7.690;2023-03-23T11:56:28;13.10;99.90
61412;DHT22;47278;49.732;7.690;2023-03-23T11:58:56;13.10;99.90
61412;DHT22;47278;49.732;7.690;2023-03-23T12:06:34;13.10;99.90
61412;DHT22;47278;49.732;7.690;2023-03-23T12:12:25;13.30;99.90
61412;DHT22;47278;49.732;7.690;2023-03-23T12:18:17;13.70;99.90
61412;DHT22;47278;49.732;7.690;2023-03-23T12:23:45;14.50;99.90
61412;DHT22;47278;49.732;7.690;2023-03-23T12:26:31;14.70;99.90
61412;DHT22;47278;49.732;7.690;2023-03-23T12:29:35;14.60;99.90
61412;DHT22;47278;49.732;7.690;2023-03-23T12:32:36;14.70;99.90
61412;DHT22;47278;49.732;7.690;2023-03-23T12:43:48;14.80;99.90
61412;DHT22;47278;49.732;7.690;2023-03-23T12:46:25;14.60;99.90
61412;DHT22;47278;49.732;7.690;2023-03-23T12:49:22;14.50;99.90
61412;DHT22;47278;49.732;7.690;2023-03-23T12:51:57;14.40;99.90
61412;DHT22;47278;49.732;7.690;2023-03-23T12:54:32;14.30;99.90
61412;DHT22;47278;49.732;7.690;2023-03-23T12:57:42;14.40;99.90
61412;DHT22;47278;49.732;7.690;2023-03-23T12:59:56;14.50;99.90
61412;DHT22;47278;49.732;7.690;2023-03-23T13:02:26;14.50;99.90
61412;DHT22;47278;49.732;7.690;2023-03-23T13:08:19;14.50;99.90
61412;DHT22;47278;49.732;7.690;2023-03-23T13:10:48;16.70;99.90
61412;DHT22;47278;49.732;7.690;2023-03-23T13:13:22;14.70;99.90
61412;DHT22;47278;49.732;7.690;2023-03-23T13:24:55;14.80;99.90
61412;DHT22;47278;49.732;7.690;2023-03-23T13:27:26;14.70;99.90
61412;DHT22;47278;49.732;7.690;2023-03-23T13:29:56;14.60;99.90
61412;DHT22;47278;49.732;7.690;2023-03-23T13:32:34;14.60;99.90
61412;DHT22;47278;49.732;7.690;2023-03-23T13:35:03;14.80;99.90
61412;DHT22;47278;49.732;7.690;2023-03-23T13:37:30;14.70;99.90
61412;DHT22;47278;49.732;7.690;2023-03-23T13:42:52;14.50;99.90
61412;DHT22;47278;49.732;7.690;2023-03-23T13:53:31;14.30;99.90
61412;DHT22;47278;49.732;7.690;2023-03-23T13:56:40;14.20;99.90
61412;DHT22;47278;49.732;7.690;2023-03-23T13:59:27;14.20;99.90
61412;DHT22;47278;49.732;7.690;2023-03-23T14:02:30;14.00;99.90
61412;DHT22;47278;49.732;7.690;2023-03-23T14:04:56;14.20;99.90
61412;DHT22;47278;49.732;7.690;2023-03-23T14:07:23;14.20;99.90
61412;DHT22;47278;49.732;7.690;2023-03-23T14:09:51;14.20;99.90
61412;DHT22;47278;49.732;7.690;2023-03-23T14:12:25;14.10;99.90
61412;DHT22;47278;49.732;7.690;2023-03-23T14:14:59;14.20;99.90
61412;DHT22;47278;49.732;7.690;2023-03-23T14:17:31;14.30;99.90
61412;DHT22;47278;49.732;7.690;2023-03-23T14:20:00;14.30;99.90
61412;DHT22;47278;49.732;7.690;2023-03-23T14:22:37;14.30;99.90
61412;DHT22;47278;49.732;7.690;2023-03-23T14:25:16;14.30;99.90
61412;DHT22;47278;49.732;7.690;2023-03-23T14:27:43;14.40;99.90
61412;DHT22;47278;49.732;7.690;2023-03-23T14:30:17;14.60;99.90
61412;DHT22;47278;49.732;7.690;2023-03-23T14:32:43;14.60;99.90
61412;DHT22;47278;49.732;7.690;2023-03-23T14:35:26;14.60;99.90
61412;DHT22;47278;49.732;7.690;2023-03-23T14:37:54;14.60;99.90
61412;DHT22;47278;49.732;7.690;2023-03-23T14:40:21;14.50;99.90
61412;DHT22;47278;49.732;7.690;2023-03-23T14:42:47;14.50;99.90
61412;DHT22;47278;49.732;7.690;2023-03-23T14:45:18;14.50;99.90
61412;DHT22;47278;49.732;7.690;2023-03-23T14:47:50;14.40;99.90
61412;DHT22;47278;49.732;7.690;2023-03-23T14:50:39;14.60;99.90
61412;DHT22;47278;49.732;7.690;2023-03-23T14:56:10;14.40;99.90
61412;DHT22;47278;49.732;7.690;2023-03-23T14:58:36;14.20;99.90
61412;DHT22;47278;49.732;7.690;2023-03-23T15:01:09;14.30;99.90
61412;DHT22;47278;49.732;7.690;2023-03-23T15:03:43;14.10;99.90
61412;DHT22;47278;49.732;7.690;2023-03-23T15:06:15;14.00;99.90
61412;DHT22;47278;49.732;7.690;2023-03-23T15:08:43;14.10;99.90
61412;DHT22;47278;49.732;7.690;2023-03-23T15:13:50;13.90;99.90
61412;DHT22;47278;49.732;7.690;2023-03-23T15:16:28;14.10;99.90
61412;DHT22;47278;49.732;7.690;2023-03-23T15:19:00;14.00;99.90
61412;DHT22;47278;49.732;7.690;2023-03-23T15:24:38;14.00;99.90
61412;DHT22;47278;49.732;7.690;2023-03-23T15:27:22;14.00;99.90
61412;DHT22;47278;49.732;7.690;2023-03-23T15:29:54;14.10;99.90
61412;DHT22;47278;49.732;7.690;2023-03-23T15:32:25;14.10;99.90
61412;DHT22;47278;49.732;7.690;2023-03-23T15:34:51;14.20;99.90
61412;DHT22;47278;49.732;7.690;2023-03-23T15:37:30;14.30;99.90
61412;DHT22;47278;49.732;7.690;2023-03-23T15:39:57;14.30;99.90
61412;DHT22;47278;49.732;7.690;2023-03-23T15:42:26;14.30;99.90
61412;DHT22;47278;49.732;7.690;2023-03-23T15:47:46;14.40;99.90
61412;DHT22;47278;49.732;7.690;2023-03-23T15:52:40;14.30;99.90
61412;DHT22;47278;49.732;7.690;2023-03-23T15:55:25;14.40;99.90
61412;DHT22;47278;49.732;7.690;2023-03-23T15:57:53;14.30;99.90
61412;DHT22;47278;49.732;7.690;2023-03-23T16:00:21;14.30;99.90
61412;DHT22;47278;49.732;7.690;2023-03-23T16:02:51;14.30;99.90
61412;DHT22;47278;49.732;7.690;2023-03-23T16:05:18;14.30;99.90
61412;DHT22;47278;49.732;7.690;2023-03-23T16:07:44;14.30;99.90
61412;DHT22;47278;49.732;7.690;2023-03-23T16:10:18;15.70;99.90
61412;DHT22;47278;49.732;7.690;2023-03-23T16:12:45;14.30;99.90
61412;DHT22;47278;49.732;7.690;2023-03-23T16:15:14;14.40;99.90
61412;DHT22;47278;49.732;7.690;2023-03-23T16:17:40;14.40;99.90
61412;DHT22;47278;49.732;7.690;2023-03-23T16:20:21;14.50;99.90
61412;DHT22;47278;49.732;7.690;2023-03-23T16:22:47;14.50;99.90
61412;DHT22;47278;49.732;7.690;2023-03-23T16:25:14;14.50;99.90
61412;DHT22;47278;49.732;7.690;2023-03-23T16:27:41;14.40;99.90
61412;DHT22;47278;49.732;7.690;2023-03-23T16:30:15;14.40;99.90
61412;DHT22;47278;49.732;7.690;2023-03-23T16:32:42;14.40;99.90
61412;DHT22;47278;49.732;7.690;2023-03-23T16:35:08;14.40;99.90
61412;DHT22;47278;49.732;7.690;2023-03-23T16:37:34;14.50;99.90
61412;DHT22;47278;49.732;7.690;2023-03-23T16:40:01;14.40;99.90
61412;DHT22;47278;49.732;7.690;2023-03-23T16:42:27;14.30;99.90
61412;DHT22;47278;49.732;7.690;2023-03-23T16:44:53;14.30;99.90
61412;DHT22;47278;49.732;7.690;2023-03-23T16:47:19;14.40;99.90
61412;DHT22;47278;49.732;7.690;2023-03-23T16:49:50;14.30;99.90
61412;DHT22;47278;49.732;7.690;2023-03-23T16:52:16;14.30;99.90
61412;DHT22;47278;49.732;7.690;2023-03-23T16:54:42;14.30;99.90
61412;DHT22;47278;49.732;7.690;2023-03-23T16:57:08;14.30;99.90
61412;DHT22;47278;49.732;7.690;2023-03-23T16:59:34;14.20;99.90
61412;DHT22;47278;49.732;7.690;2023-03-23T17:02:00;14.20;99.90
61412;DHT22;47278;49.732;7.690;2023-03-23T17:04:32;14.10;99.90
61412;DHT22;47278;49.732;7.690;2023-03-23T17:06:59;14.10;99.90
61412;DHT22;47278;49.732;7.690;2023-03-23T17:09:25;14.10;99.90
61412;DHT22;47278;49.732;7.690;2023-03-23T17:11:52;14.00;99.90
61412;DHT22;47278;49.732;7.690;2023-03-23T17:14:19;13.90;99.90
61412;DHT22;47278;49.732;7.690;2023-03-23T17:16:44;13.90;99.90
61412;DHT22;47278;49.732;7.690;2023-03-23T17:19:10;13.90;99.90
61412;DHT22;47278;49.732;7.690;2023-03-23T17:21:39;13.80;99.90
61412;DHT22;47278;49.732;7.690;2023-03-23T17:24:07;13.70;99.90
61412;DHT22;47278;49.732;7.690;2023-03-23T17:26:33;13.60;99.90
61412;DHT22;47278;49.732;7.690;2023-03-23T17:28:59;13.50;99.90